createdAt,value
2017-04-30T00:01:39.245Z,2.80
2017-04-30T00:04:10.038Z,2.30
2017-04-30T00:06:40.971Z,2.12
2017-04-30T00:09:11.004Z,2.10
2017-04-30T00:11:41.223Z,2.26
2017-04-30T00:14:11.476Z,2.70
2017-04-30T00:16:41.606Z,3.08
2017-04-30T00:19:11.631Z,2.62
2017-04-30T00:21:42.631Z,2.82
2017-04-30T00:24:13.168Z,2.50
2017-04-30T00:26:44.371Z,4.22
2017-04-30T00:29:15.274Z,6.92
2017-04-30T00:31:46.256Z,8.40
2017-04-30T00:34:16.841Z,8.08
2017-04-30T00:36:48.101Z,8.12
2017-04-30T00:39:18.923Z,7.20
2017-04-30T00:41:49.888Z,4.32
2017-04-30T00:44:20.700Z,4.48
2017-04-30T00:46:51.693Z,4.68
2017-04-30T00:49:22.514Z,2.76
2017-04-30T00:51:53.565Z,3.04
2017-04-30T00:54:24.297Z,7.66
2017-04-30T00:57:00.241Z,5.96
2017-04-30T00:59:31.247Z,11.00
2017-04-30T01:02:02.157Z,9.32
2017-04-30T01:04:33.770Z,5.72
2017-04-30T01:07:04.673Z,17.04
2017-04-30T01:09:35.261Z,24.12
2017-04-30T01:12:06.109Z,11.02
2017-04-30T01:14:37.156Z,5.18
2017-04-30T01:17:08.884Z,10.98
2017-04-30T01:19:39.924Z,6.76
2017-04-30T01:22:10.169Z,6.58
2017-04-30T01:24:41.260Z,5.60
2017-04-30T01:27:12.477Z,6.58
2017-04-30T01:29:43.438Z,5.24
2017-04-30T01:32:14.871Z,6.88
2017-04-30T01:34:45.665Z,5.12
2017-04-30T01:37:16.345Z,5.48
2017-04-30T01:39:46.984Z,10.54
2017-04-30T01:42:18.168Z,6.10
2017-04-30T01:44:49.004Z,7.44
2017-04-30T01:47:19.819Z,5.74
2017-04-30T01:49:51.736Z,5.96
2017-04-30T01:52:22.906Z,7.00
2017-04-30T01:54:53.605Z,6.82
2017-04-30T01:57:25.629Z,7.84
2017-04-30T01:59:55.639Z,8.62
2017-04-30T02:02:26.562Z,8.10
2017-04-30T02:04:57.373Z,6.00
2017-04-30T02:07:28.020Z,5.72
2017-04-30T02:09:58.539Z,5.28
2017-04-30T02:12:29.559Z,5.10
2017-04-30T02:15:00.130Z,5.84
2017-04-30T02:17:31.137Z,4.78
2017-04-30T02:20:02.186Z,4.98
2017-04-30T02:22:33.337Z,4.68
2017-04-30T02:25:04.374Z,4.34
2017-04-30T02:27:36.385Z,4.50
2017-04-30T02:30:07.260Z,5.16
2017-04-30T02:32:43.121Z,5.46
2017-04-30T02:35:13.920Z,4.70
2017-04-30T02:37:45.940Z,5.40
2017-04-30T02:40:17.930Z,5.46
2017-04-30T02:42:48.776Z,5.00
2017-04-30T02:45:20.577Z,5.78
2017-04-30T02:47:51.688Z,5.96
2017-04-30T02:50:22.559Z,6.24
2017-04-30T02:52:53.533Z,5.30
2017-04-30T02:55:24.488Z,5.92
2017-04-30T02:57:56.141Z,5.30
2017-04-30T03:00:26.788Z,8.46
2017-04-30T03:02:57.552Z,7.80
2017-04-30T03:05:29.055Z,9.24
2017-04-30T03:08:00.379Z,10.00
2017-04-30T03:10:31.381Z,6.84
2017-04-30T03:13:01.599Z,7.86
2017-04-30T03:15:32.345Z,7.58
2017-04-30T03:18:03.465Z,6.00
2017-04-30T03:20:34.492Z,4.98
2017-04-30T03:23:05.522Z,4.64
2017-04-30T03:25:36.379Z,2.86
2017-04-30T03:28:07.633Z,2.90
2017-04-30T03:30:39.675Z,3.24
2017-04-30T03:33:10.822Z,3.34
2017-04-30T03:35:41.362Z,2.92
2017-04-30T03:38:23.442Z,2.56
2017-04-30T03:41:11.178Z,2.84
2017-04-30T03:43:58.912Z,2.66
2017-04-30T03:46:46.641Z,2.56
2017-04-30T03:49:34.361Z,3.10
2017-04-30T03:52:21.819Z,2.64
2017-04-30T03:55:09.937Z,2.96
2017-04-30T03:57:57.412Z,3.14
2017-04-30T04:00:46.647Z,2.66
2017-04-30T04:03:35.017Z,2.38
2017-04-30T04:06:22.762Z,2.82
2017-04-30T04:09:10.140Z,2.74
2017-04-30T04:11:57.866Z,2.50
2017-04-30T04:14:45.475Z,3.12
2017-04-30T04:17:33.357Z,3.32
2017-04-30T04:20:21.281Z,3.92
2017-04-30T04:23:09.659Z,3.36
2017-04-30T04:25:57.175Z,5.02
2017-04-30T04:28:44.846Z,5.92
2017-04-30T04:31:32.634Z,4.56
2017-04-30T04:34:20.345Z,4.00
2017-04-30T04:37:07.832Z,3.32
2017-04-30T04:39:55.451Z,3.60
2017-04-30T04:42:43.126Z,4.42
2017-04-30T04:45:30.671Z,3.98
2017-04-30T04:48:18.413Z,5.22
2017-04-30T04:51:06.342Z,5.90
2017-04-30T04:53:53.912Z,6.70
2017-04-30T04:56:41.697Z,12.74
2017-04-30T04:59:29.871Z,15.60
2017-04-30T05:02:17.394Z,13.78
2017-04-30T05:05:04.760Z,12.78
2017-04-30T05:07:52.453Z,6.00
2017-04-30T05:10:39.970Z,4.02
2017-04-30T05:13:27.444Z,4.06
2017-04-30T05:16:15.319Z,4.20
2017-04-30T05:19:03.035Z,3.32
2017-04-30T05:21:50.591Z,4.18
2017-04-30T05:24:38.332Z,2.86
2017-04-30T05:27:25.928Z,3.34
2017-04-30T05:30:13.982Z,3.70
2017-04-30T05:33:01.451Z,4.14
2017-04-30T05:35:49.127Z,3.62
2017-04-30T05:38:36.907Z,4.24
2017-04-30T05:41:24.635Z,3.54
2017-04-30T05:44:12.359Z,3.66
2017-04-30T05:47:00.060Z,3.62
2017-04-30T05:49:47.791Z,4.04
2017-04-30T05:52:35.678Z,4.00
2017-04-30T05:55:23.256Z,4.02
2017-04-30T05:58:11.140Z,3.62
2017-04-30T06:00:59.363Z,3.40
2017-04-30T06:03:46.905Z,3.70
2017-04-30T06:06:34.641Z,4.06
2017-04-30T06:09:22.301Z,3.68
2017-04-30T06:12:09.977Z,3.66
2017-04-30T06:14:57.841Z,3.98
2017-04-30T06:17:45.473Z,3.88
2017-04-30T06:20:33.312Z,3.58
2017-04-30T06:23:20.882Z,4.18
2017-04-30T06:26:08.334Z,3.42
2017-04-30T06:28:56.033Z,3.46
2017-04-30T06:31:43.644Z,3.32
2017-04-30T06:34:31.041Z,3.98
2017-04-30T06:37:18.654Z,3.30
2017-04-30T06:40:06.535Z,4.10
2017-04-30T06:42:54.725Z,3.04
2017-04-30T06:45:42.777Z,3.96
2017-04-30T06:48:30.617Z,3.74
2017-04-30T06:51:18.077Z,2.82
2017-04-30T06:54:05.965Z,3.30
2017-04-30T06:56:53.705Z,3.52
2017-04-30T06:59:41.564Z,3.66
2017-04-30T07:02:30.500Z,4.64
2017-04-30T07:05:17.962Z,3.32
2017-04-30T07:08:06.624Z,3.42
2017-04-30T07:10:54.560Z,4.18
2017-04-30T07:13:42.670Z,4.36
2017-04-30T07:16:30.598Z,3.80
2017-04-30T07:19:18.335Z,3.24
2017-04-30T07:22:05.862Z,3.30
2017-04-30T07:24:53.331Z,3.72
2017-04-30T07:27:41.526Z,3.98
2017-04-30T07:30:29.083Z,4.24
2017-04-30T07:33:16.828Z,3.50
2017-04-30T07:36:04.560Z,4.12
2017-04-30T07:38:52.144Z,4.74
2017-04-30T07:41:40.497Z,3.66
2017-04-30T07:44:18.033Z,4.38
2017-04-30T07:46:48.806Z,3.66
2017-04-30T07:49:19.728Z,3.78
2017-04-30T07:51:50.461Z,3.92
2017-04-30T07:54:21.446Z,3.66
2017-04-30T07:56:52.077Z,3.98
2017-04-30T07:59:22.866Z,4.08
2017-04-30T08:01:53.719Z,3.80
2017-04-30T08:04:26.131Z,4.18
2017-04-30T08:06:56.708Z,3.72
2017-04-30T08:09:27.614Z,4.14
2017-04-30T08:11:58.462Z,4.68
2017-04-30T08:14:29.316Z,4.86
2017-04-30T08:17:00.129Z,5.76
2017-04-30T08:19:30.703Z,4.28
2017-04-30T08:22:01.528Z,4.24
2017-04-30T08:24:32.506Z,3.90
2017-04-30T08:27:03.218Z,4.90
2017-04-30T08:29:34.162Z,4.02
2017-04-30T08:32:04.609Z,4.00
2017-04-30T08:34:36.485Z,4.14
2017-04-30T08:37:07.232Z,4.40
2017-04-30T08:39:38.110Z,5.08
2017-04-30T08:42:08.862Z,4.48
2017-04-30T08:44:39.447Z,3.94
2017-04-30T08:47:10.076Z,4.50
2017-04-30T08:49:41.090Z,3.88
2017-04-30T08:52:12.721Z,3.70
2017-04-30T08:54:43.411Z,3.90
2017-04-30T08:57:14.023Z,4.42
2017-04-30T08:59:44.899Z,5.08
2017-04-30T09:02:15.807Z,3.66
2017-04-30T09:04:47.478Z,3.40
2017-04-30T09:07:18.405Z,4.32
2017-04-30T09:09:49.284Z,3.78
2017-04-30T09:12:20.095Z,3.52
2017-04-30T09:14:50.866Z,4.36
2017-04-30T09:17:21.546Z,3.74
2017-04-30T09:19:52.130Z,4.54
2017-04-30T09:22:22.857Z,3.98
2017-04-30T09:24:53.817Z,3.62
2017-04-30T09:27:24.493Z,3.60
2017-04-30T09:29:55.248Z,4.06
2017-04-30T09:32:26.289Z,3.88
2017-04-30T09:34:56.824Z,3.82
2017-04-30T09:37:27.490Z,4.08
2017-04-30T09:39:58.089Z,3.32
2017-04-30T09:42:28.971Z,3.20
2017-04-30T09:45:00.496Z,3.66
2017-04-30T09:47:30.849Z,3.70
2017-04-30T09:50:01.926Z,3.64
2017-04-30T09:52:32.842Z,3.10
2017-04-30T09:55:03.890Z,3.32
2017-04-30T09:57:34.685Z,3.60
2017-04-30T10:00:05.677Z,4.32
2017-04-30T10:02:36.276Z,3.64
2017-04-30T10:05:08.631Z,3.44
2017-04-30T10:07:39.263Z,3.88
2017-04-30T10:10:10.096Z,3.90
2017-04-30T10:12:40.754Z,4.26
2017-04-30T10:15:11.719Z,3.76
2017-04-30T10:17:42.521Z,4.66
2017-04-30T10:20:14.413Z,3.60
2017-04-30T10:22:45.290Z,3.26
2017-04-30T10:25:16.267Z,3.96
2017-04-30T10:27:47.696Z,3.64
2017-04-30T10:30:18.473Z,3.60
2017-04-30T10:32:49.487Z,3.94
2017-04-30T10:35:20.029Z,4.98
2017-04-30T10:37:50.854Z,4.74
2017-04-30T10:40:21.640Z,4.16
2017-04-30T10:42:52.151Z,3.46
2017-04-30T10:45:22.709Z,3.62
2017-04-30T10:47:53.452Z,4.00
2017-04-30T10:50:24.224Z,3.82
2017-04-30T10:52:55.164Z,4.68
2017-04-30T10:55:26.647Z,4.44
2017-04-30T10:57:57.258Z,4.12
2017-04-30T11:00:28.238Z,3.68
2017-04-30T11:02:59.044Z,4.30
2017-04-30T11:05:30.926Z,4.44
2017-04-30T11:08:01.657Z,5.08
2017-04-30T11:10:32.606Z,3.88
2017-04-30T11:13:02.664Z,3.40
2017-04-30T11:15:33.574Z,3.18
2017-04-30T11:18:04.265Z,4.18
2017-04-30T11:20:35.289Z,3.90
2017-04-30T11:23:05.695Z,3.50
2017-04-30T11:25:36.837Z,3.30
2017-04-30T11:28:07.500Z,4.10
2017-04-30T11:30:38.848Z,3.02
2017-04-30T11:33:09.575Z,4.30
2017-04-30T11:35:40.615Z,4.00
2017-04-30T11:38:12.191Z,4.18
2017-04-30T11:40:43.053Z,5.42
2017-04-30T11:43:13.730Z,4.50
2017-04-30T11:45:45.117Z,4.30
2017-04-30T11:48:15.813Z,4.16
2017-04-30T11:50:46.781Z,5.50
2017-04-30T11:53:17.363Z,4.52
2017-04-30T11:55:47.938Z,6.26
2017-04-30T11:58:19.264Z,6.70
2017-04-30T12:00:50.112Z,3.72
2017-04-30T12:03:20.953Z,3.80
2017-04-30T12:05:52.434Z,5.86
2017-04-30T12:08:23.155Z,3.84
2017-04-30T12:10:54.066Z,6.02
2017-04-30T12:13:25.095Z,4.82
2017-04-30T12:15:55.954Z,3.06
2017-04-30T12:18:27.036Z,5.58
2017-04-30T12:20:57.805Z,3.66
2017-04-30T12:23:28.366Z,3.96
2017-04-30T12:25:59.221Z,4.56
2017-04-30T12:28:29.893Z,2.02
2017-04-30T12:31:00.882Z,2.60
2017-04-30T12:33:31.586Z,2.66
2017-04-30T12:36:02.562Z,2.78
2017-04-30T12:38:33.200Z,3.12
2017-04-30T12:41:03.903Z,2.22
2017-04-30T12:43:35.128Z,3.00
2017-04-30T12:46:05.684Z,3.76
2017-04-30T12:48:36.435Z,3.90
2017-04-30T12:51:07.217Z,2.96
2017-04-30T12:53:37.870Z,2.84
2017-04-30T12:56:08.494Z,2.68
2017-04-30T12:58:39.480Z,2.24
2017-04-30T13:01:10.383Z,2.12
2017-04-30T13:03:41.247Z,1.86
2017-04-30T13:06:13.452Z,1.96
2017-04-30T13:08:44.302Z,1.60
2017-04-30T13:11:15.078Z,1.82
2017-04-30T13:13:46.098Z,2.00
2017-04-30T13:16:17.183Z,1.86
2017-04-30T13:18:47.944Z,1.96
2017-04-30T13:21:18.799Z,1.58
2017-04-30T13:23:49.427Z,1.12
2017-04-30T13:26:20.092Z,1.66
2017-04-30T13:28:50.984Z,1.46
2017-04-30T13:31:21.774Z,2.16
2017-04-30T13:33:52.602Z,2.04
2017-04-30T13:36:23.487Z,1.54
2017-04-30T13:38:54.281Z,1.44
2017-04-30T13:41:25.120Z,1.10
2017-04-30T13:43:55.863Z,2.22
2017-04-30T13:46:26.695Z,2.20
2017-04-30T13:48:57.246Z,1.34
2017-04-30T13:51:28.127Z,1.98
2017-04-30T13:53:59.182Z,1.76
2017-04-30T13:56:30.169Z,1.70
2017-04-30T13:59:00.776Z,1.90
2017-04-30T14:01:31.758Z,1.96
2017-04-30T14:04:02.686Z,1.72
2017-04-30T14:06:34.843Z,1.80
2017-04-30T14:09:05.302Z,1.54
2017-04-30T14:11:36.253Z,1.80
2017-04-30T14:14:06.945Z,1.86
2017-04-30T14:16:37.991Z,1.74
2017-04-30T14:19:08.838Z,1.20
2017-04-30T14:21:39.874Z,1.50
2017-04-30T14:24:10.559Z,1.80
2017-04-30T14:26:41.325Z,1.52
2017-04-30T14:29:12.057Z,1.72
2017-04-30T14:31:42.830Z,1.62
2017-04-30T14:34:13.379Z,2.48
2017-04-30T14:36:45.151Z,1.80
2017-04-30T14:39:16.740Z,1.56
2017-04-30T14:41:47.589Z,2.02
2017-04-30T14:44:18.514Z,1.74
2017-04-30T14:46:49.430Z,1.30
2017-04-30T14:49:20.894Z,2.36
2017-04-30T14:51:51.723Z,1.66
2017-04-30T14:54:23.391Z,1.50
2017-04-30T14:56:54.646Z,2.08
2017-04-30T14:59:25.417Z,1.50
2017-04-30T15:01:56.332Z,1.44
2017-04-30T15:04:27.022Z,2.12
2017-04-30T15:06:58.839Z,2.18
2017-04-30T15:09:29.545Z,2.32
2017-04-30T15:12:00.366Z,1.58
2017-04-30T15:14:30.962Z,1.32
2017-04-30T15:17:01.709Z,1.88
2017-04-30T15:19:32.840Z,2.00
2017-04-30T15:22:03.936Z,1.70
2017-04-30T15:24:34.663Z,1.80
2017-04-30T15:27:05.663Z,2.62
2017-04-30T15:29:36.475Z,1.84
2017-04-30T15:32:07.327Z,2.12
2017-04-30T15:34:37.822Z,2.16
2017-04-30T15:37:08.623Z,1.92
2017-04-30T15:39:40.146Z,1.18
2017-04-30T15:42:10.896Z,1.70
2017-04-30T15:44:41.650Z,1.54
2017-04-30T15:47:12.491Z,1.58
2017-04-30T15:49:43.436Z,1.78
2017-04-30T15:52:14.388Z,2.00
2017-04-30T15:54:45.602Z,1.30
2017-04-30T15:57:16.674Z,1.80
2017-04-30T15:59:47.579Z,1.82
2017-04-30T16:02:18.572Z,1.38
2017-04-30T16:04:49.239Z,1.50
2017-04-30T16:07:21.579Z,1.14
2017-04-30T16:09:52.611Z,1.16
2017-04-30T16:12:23.421Z,1.42
2017-04-30T16:14:53.953Z,1.40
2017-04-30T16:17:24.870Z,1.22
2017-04-30T16:19:55.842Z,1.38
2017-04-30T16:22:26.658Z,1.34
2017-04-30T16:24:57.529Z,0.90
2017-04-30T16:27:28.450Z,1.00
2017-04-30T16:29:59.314Z,1.30
2017-04-30T16:32:29.924Z,1.54
2017-04-30T16:35:00.670Z,1.82
2017-04-30T16:37:31.258Z,1.44
2017-04-30T16:40:02.101Z,1.40
2017-04-30T16:42:33.325Z,1.60
2017-04-30T16:45:04.232Z,1.54
2017-04-30T16:47:35.134Z,1.98
2017-04-30T16:50:05.959Z,2.34
2017-04-30T16:52:36.789Z,1.60
2017-04-30T16:55:08.362Z,1.48
2017-04-30T16:57:39.311Z,1.36
2017-04-30T17:00:10.015Z,1.20
2017-04-30T17:02:40.671Z,1.18
2017-04-30T17:05:11.382Z,1.68
2017-04-30T17:07:43.329Z,1.38
2017-04-30T17:10:14.481Z,1.70
2017-04-30T17:12:45.265Z,1.30
2017-04-30T17:15:15.837Z,1.64
2017-04-30T17:17:47.499Z,1.20
2017-04-30T17:20:18.261Z,1.42
2017-04-30T17:22:49.299Z,1.44
2017-04-30T17:25:20.148Z,1.62
2017-04-30T17:27:50.989Z,1.66
2017-04-30T17:30:21.614Z,1.46
2017-04-30T17:32:52.462Z,1.60
2017-04-30T17:35:23.394Z,1.16
2017-04-30T17:37:54.040Z,1.40
2017-04-30T17:40:24.704Z,1.30
2017-04-30T17:42:55.282Z,1.48
2017-04-30T17:45:26.180Z,1.66
2017-04-30T17:47:58.003Z,1.88
2017-04-30T17:50:29.113Z,2.04
2017-04-30T17:52:59.805Z,1.62
2017-04-30T17:55:30.653Z,1.80
2017-04-30T17:58:01.434Z,1.80
2017-04-30T18:00:32.211Z,1.20
2017-04-30T18:03:03.220Z,2.00
2017-04-30T18:05:34.161Z,2.18
2017-04-30T18:08:06.062Z,1.86
2017-04-30T18:10:36.730Z,2.28
2017-04-30T18:13:07.416Z,1.90
2017-04-30T18:15:38.321Z,1.80
2017-04-30T18:18:09.328Z,2.20
2017-04-30T18:20:40.109Z,1.64
2017-04-30T18:23:10.189Z,2.92
2017-04-30T18:25:40.212Z,2.16
2017-04-30T18:28:10.258Z,2.40
2017-04-30T18:30:40.354Z,2.60
2017-04-30T18:33:10.354Z,2.04
2017-04-30T18:35:41.267Z,2.10
2017-04-30T18:38:12.354Z,2.16
2017-04-30T18:40:43.172Z,2.30
2017-04-30T18:43:13.819Z,2.10
2017-04-30T18:45:44.643Z,2.20
2017-04-30T18:48:15.613Z,2.74
2017-04-30T18:50:49.861Z,2.20
2017-04-30T18:53:20.415Z,2.30
2017-04-30T18:55:51.308Z,2.58
2017-04-30T18:58:22.120Z,2.16
2017-04-30T19:00:53.163Z,2.74
2017-04-30T19:03:23.931Z,2.20
2017-04-30T19:05:54.657Z,2.16
2017-04-30T19:08:26.963Z,2.78
2017-04-30T19:10:57.715Z,2.52
2017-04-30T19:13:28.462Z,2.10
2017-04-30T19:15:59.329Z,2.30
2017-04-30T19:18:30.159Z,2.22
2017-04-30T19:21:00.612Z,2.28
2017-04-30T19:23:31.464Z,2.60
2017-04-30T19:26:01.891Z,2.76
2017-04-30T19:28:32.976Z,2.84
2017-04-30T19:31:03.522Z,2.34
2017-04-30T19:33:34.201Z,2.56
2017-04-30T19:36:04.769Z,1.88
2017-04-30T19:38:35.494Z,2.30
2017-04-30T19:41:06.356Z,2.68
2017-04-30T19:43:37.438Z,2.50
2017-04-30T19:46:07.982Z,1.92
2017-04-30T19:48:38.888Z,2.14
2017-04-30T19:51:09.536Z,2.72
2017-04-30T19:53:40.119Z,2.88
2017-04-30T19:56:10.939Z,2.32
2017-04-30T19:58:41.747Z,2.50
2017-04-30T20:01:12.429Z,2.56
2017-04-30T20:03:43.118Z,2.06
2017-04-30T20:06:14.819Z,2.82
2017-04-30T20:08:47.082Z,2.20
2017-04-30T20:11:17.847Z,2.42
2017-04-30T20:13:48.609Z,2.74
2017-04-30T20:16:19.236Z,2.20
2017-04-30T20:18:50.483Z,3.14
2017-04-30T20:21:21.360Z,2.32
2017-04-30T20:23:52.124Z,2.46
2017-04-30T20:26:22.962Z,2.50
2017-04-30T20:28:53.850Z,2.42
2017-04-30T20:31:24.509Z,2.24
2017-04-30T20:33:55.423Z,3.32
2017-04-30T20:36:26.204Z,2.60
2017-04-30T20:38:56.796Z,2.52
2017-04-30T20:41:27.370Z,2.34
2017-04-30T20:43:58.477Z,2.18
2017-04-30T20:46:29.469Z,2.30
2017-04-30T20:49:00.208Z,2.66
2017-04-30T20:51:31.058Z,2.56
2017-04-30T20:54:01.979Z,2.34
2017-04-30T20:56:32.753Z,2.10
2017-04-30T20:59:03.850Z,2.16
2017-04-30T21:01:34.629Z,2.38
2017-04-30T21:04:05.245Z,2.04
2017-04-30T21:06:36.011Z,2.86
2017-04-30T21:09:08.116Z,2.32
2017-04-30T21:11:38.801Z,2.74
2017-04-30T21:14:09.551Z,2.60
2017-04-30T21:16:40.378Z,2.24
2017-04-30T21:19:11.324Z,2.36
2017-04-30T21:21:42.130Z,2.72
2017-04-30T21:24:13.829Z,2.80
2017-04-30T21:26:44.551Z,2.62
2017-04-30T21:29:15.746Z,2.78
2017-04-30T21:31:46.526Z,2.52
2017-04-30T21:34:17.240Z,2.44
2017-04-30T21:36:47.798Z,2.90
2017-04-30T21:39:18.406Z,2.68
2017-04-30T21:41:49.357Z,2.82
2017-04-30T21:44:20.072Z,2.58
2017-04-30T21:46:50.782Z,2.86
2017-04-30T21:49:21.602Z,3.18
2017-04-30T21:51:52.411Z,2.68
2017-04-30T21:54:23.238Z,2.50
2017-04-30T21:56:54.104Z,2.70
2017-04-30T21:59:25.043Z,2.82
2017-04-30T22:01:55.784Z,2.90
2017-04-30T22:04:26.803Z,2.00
2017-04-30T22:06:57.497Z,2.52
2017-04-30T22:09:30.050Z,2.88
2017-04-30T22:12:00.939Z,2.50
2017-04-30T22:14:31.838Z,2.76
2017-04-30T22:17:02.649Z,2.70
2017-04-30T22:19:33.413Z,2.00
2017-04-30T22:22:04.058Z,3.20
2017-04-30T22:24:34.729Z,3.08
2017-04-30T22:27:05.581Z,3.46
2017-04-30T22:29:36.780Z,2.70
2017-04-30T22:32:07.570Z,3.44
2017-04-30T22:34:38.429Z,3.50
2017-04-30T22:37:09.447Z,3.06
2017-04-30T22:39:40.038Z,3.30
2017-04-30T22:42:10.652Z,3.36
2017-04-30T22:44:41.581Z,2.72
2017-04-30T22:47:13.148Z,3.78
2017-04-30T22:49:44.247Z,3.10
2017-04-30T22:52:15.090Z,3.50
2017-04-30T22:54:46.294Z,2.70
2017-04-30T22:57:17.189Z,3.12
2017-04-30T22:59:48.292Z,2.78
2017-04-30T23:02:19.096Z,2.76
2017-04-30T23:04:49.722Z,3.76
2017-04-30T23:07:20.715Z,3.40
2017-04-30T23:09:52.560Z,3.20
2017-04-30T23:12:23.544Z,3.26
2017-04-30T23:14:55.152Z,3.04
2017-04-30T23:17:26.086Z,3.50
2017-04-30T23:19:57.083Z,2.82
2017-04-30T23:22:27.763Z,2.90
2017-04-30T23:24:58.145Z,3.24
2017-04-30T23:27:29.007Z,3.14
2017-04-30T23:29:59.733Z,2.90
2017-04-30T23:32:30.412Z,3.78
2017-04-30T23:35:01.424Z,3.10
2017-04-30T23:37:31.930Z,3.10
2017-04-30T23:40:02.642Z,3.20
2017-04-30T23:42:33.640Z,3.24
2017-04-30T23:45:04.123Z,3.32
2017-04-30T23:47:35.474Z,3.20
2017-04-30T23:50:06.353Z,2.92
2017-04-30T23:52:37.334Z,3.32
2017-04-30T23:55:08.287Z,2.68
2017-04-30T23:57:39.109Z,2.40
